Time;durP1;ratioP1;P1;durP2;ratioP2;P2;SDS_P1;SDS_P2;PMS_P1;PMS_P2;Temp;Humidity;BMP_temperature;BMP_pressure;BME280_temperature;BME280_humidity;BME280_pressure;Samples;Min_cycle;Max_cycle;Signal;HPM_P1;HPM_P2
2021/04/05 00:01:23;;;;;;;22.53;12.40;;;7.90;93.60;;;;;;6208401;23;20446;-85
2021/04/05 00:03:59;;;;;;;21.10;14.27;;;7.70;94.10;;;;;;6210630;23;20423;-83
2021/04/05 00:06:28;;;;;;;24.50;13.73;;;7.70;94.70;;;;;;6236515;23;20404;-82
2021/04/05 00:08:54;;;;;;;28.03;13.30;;;7.80;94.60;;;;;;6208634;23;20412;-82
2021/04/05 00:11:25;;;;;;;23.60;13.40;;;7.90;94.40;;;;;;6209903;23;20439;-82
2021/04/05 00:13:55;;;;;;;21.53;14.77;;;8.00;94.20;;;;;;6209711;23;20412;-83
2021/04/05 00:16:27;;;;;;;23.90;14.90;;;8.00;94.10;;;;;;6211368;23;20476;-82
2021/04/05 00:18:58;;;;;;;24.53;15.43;;;7.90;94.10;;;;;;6209165;23;20412;-81
2021/04/05 00:21:29;;;;;;;26.90;14.67;;;7.90;94.20;;;;;;6209297;23;20405;-82
2021/04/05 00:23:56;;;;;;;22.50;15.40;;;7.80;94.40;;;;;;6227258;23;20520;-85
2021/04/05 00:26:26;;;;;;;27.20;15.00;;;7.80;94.50;;;;;;6224563;23;20413;-84
2021/04/05 00:28:58;;;;;;;30.23;15.10;;;7.80;94.40;;;;;;6199181;23;20417;-83
2021/04/05 00:31:27;;;;;;;27.03;15.30;;;7.70;94.50;;;;;;6221954;23;20417;-86
2021/04/05 00:33:59;;;;;;;27.20;15.17;;;7.80;94.60;;;;;;6221965;23;20494;-85
2021/04/05 00:36:28;;;;;;;26.63;16.20;;;7.70;94.60;;;;;;6195416;23;20739;-84
2021/04/05 00:39:11;;;;;;;26.47;16.57;;;7.70;94.70;;;;;;6199175;23;20419;-83
2021/04/05 00:42:05;;;;;;;24.43;16.20;;;7.70;94.80;;;;;;6219689;23;21035;-84
2021/04/05 00:44:34;;;;;;;26.20;15.70;;;7.70;94.90;;;;;;6199585;23;20504;-83
2021/04/05 00:47:11;;;;;;;25.03;16.37;;;7.70;94.70;;;;;;6232417;23;20448;-84
2021/04/05 00:49:42;;;;;;;27.30;16.23;;;7.60;94.80;;;;;;6238574;23;20421;-83
2021/04/05 00:52:11;;;;;;;20.97;14.83;;;7.40;95.10;;;;;;6199137;23;20421;-83
2021/04/05 00:54:40;;;;;;;26.83;15.33;;;7.60;95.20;;;;;;6196085;23;20966;-85
2021/04/05 00:57:09;;;;;;;25.70;16.93;;;7.70;95.10;;;;;;6194701;23;20850;-84
2021/04/05 00:59:36;;;;;;;24.07;15.07;;;7.60;94.80;;;;;;6197743;23;20446;-85
2021/04/05 01:02:03;;;;;;;27.57;15.97;;;7.50;94.90;;;;;;6206280;23;20440;-83
2021/04/05 01:04:33;;;;;;;27.90;17.17;;;7.40;95.20;;;;;;6201444;23;20417;-84
2021/04/05 01:07:02;;;;;;;28.43;16.47;;;7.60;95.30;;;;;;6208241;23;20427;-83
2021/04/05 01:09:29;;;;;;;31.00;15.53;;;7.80;94.70;;;;;;6238554;23;20409;-83
2021/04/05 01:11:59;;;;;;;24.67;15.77;;;7.70;94.90;;;;;;6211478;23;20445;-82
2021/04/05 01:14:30;;;;;;;24.13;14.97;;;7.80;94.50;;;;;;6238097;23;20443;-82
2021/04/05 01:16:59;;;;;;;24.80;15.40;;;7.70;94.30;;;;;;6237985;23;20401;-82
2021/04/05 01:19:26;;;;;;;22.87;14.30;;;7.60;94.70;;;;;;6234083;23;20431;-82
2021/04/05 01:21:59;;;;;;;24.30;15.07;;;7.50;94.80;;;;;;6208204;23;20417;-83
2021/04/05 01:24:27;;;;;;;24.20;15.67;;;7.60;95.20;;;;;;6208240;23;20452;-83
2021/04/05 01:26:54;;;;;;;22.27;14.53;;;7.50;95.30;;;;;;6209502;23;20401;-83
2021/04/05 01:29:22;;;;;;;23.30;14.33;;;7.30;95.40;;;;;;6205949;23;20421;-86
2021/04/05 01:31:52;;;;;;;22.90;13.97;;;7.40;95.70;;;;;;6195957;23;20752;-86
2021/04/05 01:34:23;;;;;;;18.50;13.30;;;7.60;95.60;;;;;;6221859;23;20441;-85
2021/04/05 01:36:50;;;;;;;22.27;13.73;;;7.90;94.70;;;;;;6197024;23;20405;-84
2021/04/05 01:39:24;;;;;;;21.47;15.77;;;7.80;94.60;;;;;;6229958;23;20409;-82
2021/04/05 01:42:23;;;;;;;22.40;14.87;;;7.70;95.00;;;;;;6229391;23;20441;-83
2021/04/05 01:45:34;;;;;;;23.30;14.23;;;7.80;95.40;;;;;;6203142;23;20400;-82
2021/04/05 01:48:16;;;;;;;22.67;14.30;;;7.80;95.60;;;;;;6228577;23;20393;-83
2021/04/05 01:51:06;;;;;;;19.83;13.40;;;7.70;95.80;;;;;;6190219;23;20413;-85
2021/04/05 01:53:55;;;;;;;23.30;15.40;;;7.60;96.20;;;;;;6166377;23;20427;-80
2021/04/05 01:56:42;;;;;;;;;;;;;;;;;;;;;
2021/04/05 01:59:45;;;;;;;19.47;13.70;;;7.60;96.80;;;;;;6229446;23;20419;-82
2021/04/05 02:02:23;;;;;;;21.67;13.50;;;7.60;96.80;;;;;;6204956;23;20508;-81
2021/04/05 02:05:26;;;;;;;27.27;14.50;;;7.60;96.90;;;;;;6224428;23;20400;-83
2021/04/05 02:08:14;;;;;;;20.97;13.47;;;7.30;97.20;;;;;;6229589;23;21002;-81
2021/04/05 02:11:14;;;;;;;19.63;13.40;;;7.40;97.20;;;;;;6196760;23;21158;-86
2021/04/05 02:13:49;;;;;;;19.57;14.00;;;7.40;97.20;;;;;;6182162;23;20413;-84
2021/04/05 02:16:34;;;;;;;23.23;14.07;;;7.50;97.10;;;;;;6202619;23;20407;-81
2021/04/05 02:19:07;;;;;;;21.70;15.13;;;7.50;96.90;;;;;;6205830;23;20417;-80
2021/04/05 02:21:34;;;;;;;22.03;14.60;;;7.60;96.80;;;;;;6231536;23;20420;-81
2021/04/05 02:24:25;;;;;;;22.83;14.57;;;7.50;96.90;;;;;;6204769;23;20617;-80
2021/04/05 02:29:59;;;;;;;30.80;15.10;;;7.60;96.80;;;;;;6221221;23;20416;-82
2021/04/05 02:36:31;;;;;;;23.20;14.80;;;7.50;96.30;;;;;;6208897;23;20535;-86
2021/04/05 02:39:11;;;;;;;25.10;15.30;;;7.30;96.00;;;;;;6184639;23;20401;-84
2021/04/05 02:41:53;;;;;;;29.77;16.10;;;7.20;96.20;;;;;;6187183;23;20451;-84
2021/04/05 02:44:28;;;;;;;21.40;15.60;;;7.30;96.40;;;;;;6187756;23;20415;-82
2021/04/05 02:47:16;;;;;;;20.53;14.00;;;7.60;96.00;;;;;;6191920;23;20431;-82
2021/04/05 02:49:52;;;;;;;23.23;14.90;;;7.80;95.40;;;;;;6226581;23;20432;-81
2021/04/05 02:52:56;;;;;;;34.53;14.37;;;7.70;95.20;;;;;;6205167;23;20426;-83
2021/04/05 02:55:30;;;;;;;23.87;13.87;;;7.60;95.40;;;;;;6184146;23;20448;-84
2021/04/05 02:58:23;;;;;;;27.80;14.63;;;7.40;95.70;;;;;;6210235;23;20528;-82
2021/04/05 03:01:20;;;;;;;21.20;14.37;;;7.40;96.10;;;;;;6191655;23;20479;-81
2021/04/05 03:04:05;;;;;;;20.50;10.90;;;7.30;96.30;;;;;;6210768;23;20467;-81
2021/04/05 03:06:52;;;;;;;22.37;13.47;;;7.10;96.50;;;;;;6192469;23;20794;-82
2021/04/05 03:09:44;;;;;;;22.77;14.27;;;7.10;96.80;;;;;;6188603;23;20417;-84
2021/04/05 03:12:22;;;;;;;22.87;14.60;;;7.00;97.00;;;;;;6185017;23;20495;-82
2021/04/05 03:15:03;;;;;;;27.23;15.93;;;7.00;97.10;;;;;;6219657;23;20435;-81
2021/04/05 03:17:42;;;;;;;23.77;15.63;;;7.10;97.20;;;;;;6207918;23;20417;-81
2021/04/05 03:20:32;;;;;;;26.10;16.50;;;7.10;97.20;;;;;;6199421;23;20421;-84
2021/04/05 03:23:15;;;;;;;21.70;15.00;;;7.20;97.10;;;;;;6197483;23;20534;-82
2021/04/05 03:26:00;;;;;;;25.40;14.00;;;7.00;97.10;;;;;;6233834;23;20432;-84
2021/04/05 03:28:33;;;;;;;23.77;14.63;;;7.00;97.30;;;;;;6210945;23;20476;-82
2021/04/05 03:31:40;;;;;;;25.00;15.33;;;7.30;96.90;;;;;;6130000;23;20410;-86
2021/04/05 03:34:25;;;;;;;24.13;14.00;;;7.20;96.90;;;;;;6071149;23;20451;-83
2021/04/05 03:37:27;;;;;;;26.50;14.27;;;7.20;97.10;;;;;;6104986;23;20408;-85
2021/04/05 03:40:40;;;;;;;22.90;13.20;;;7.50;96.30;;;;;;6087936;23;20411;-85
2021/04/05 03:44:01;;;;;;;26.27;15.97;;;7.60;95.80;;;;;;6043955;23;20833;-82
2021/04/05 03:46:44;;;;;;;28.77;14.20;;;7.60;95.80;;;;;;6085146;23;20411;-83
2021/04/05 03:50:06;;;;;;;;;;;;;;;;;;;;;
2021/04/05 03:53:29;;;;;;;28.20;15.50;;;7.60;95.50;;;;;;6124005;23;20943;-82
2021/04/05 03:56:51;;;;;;;;;;;;;;;;;;;;;
2021/04/05 03:59:54;;;;;;;21.57;14.07;;;7.20;96.10;;;;;;5974657;23;20417;-84
2021/04/05 04:02:51;;;;;;;26.60;14.77;;;7.30;96.60;;;;;;6036408;23;20468;-83
2021/04/05 04:09:24;;;;;;;20.40;15.20;;;7.40;96.50;;;;;;6003223;23;20434;-83
2021/04/05 04:15:54;;;;;;;20.53;13.03;;;7.50;97.10;;;;;;6023125;23;20434;-82
2021/04/05 04:22:28;;;;;;;25.47;13.70;;;7.70;97.10;;;;;;5924948;24;20421;-85
2021/04/05 04:25:18;;;;;;;23.10;12.50;;;8.00;96.70;;;;;;5917981;23;20435;-84
2021/04/05 04:27:53;;;;;;;19.90;12.57;;;7.90;96.90;;;;;;6007486;23;20435;-82
2021/04/05 04:30:34;;;;;;;27.20;11.83;;;7.90;97.30;;;;;;6006819;23;20579;-85
2021/04/05 04:33:20;;;;;;;22.17;13.50;;;7.90;97.50;;;;;;6006775;23;20438;-82
2021/04/05 04:36:15;;;;;;;21.23;13.83;;;8.00;97.70;;;;;;5996946;23;20470;-86
2021/04/05 04:38:56;;;;;;;18.37;11.30;;;7.90;97.70;;;;;;6068494;23;20899;-83
2021/04/05 04:42:28;;;;;;;23.60;11.93;;;8.00;97.80;;;;;;6072841;23;20405;-84
2021/04/05 04:45:33;;;;;;;21.80;12.60;;;8.00;97.80;;;;;;6072463;23;20448;-85
2021/04/05 04:48:28;;;;;;;19.23;12.13;;;8.00;97.90;;;;;;6072804;23;20448;-85
2021/04/05 04:51:11;;;;;;;26.70;13.23;;;8.10;98.40;;;;;;6074231;23;20869;-84
2021/04/05 04:53:56;;;;;;;26.47;12.63;;;8.10;98.20;;;;;;6095252;23;20952;-83
2021/04/05 04:56:52;;;;;;;17.60;12.67;;;8.10;98.20;;;;;;6075353;23;20447;-86
2021/04/05 04:59:38;;;;;;;19.63;12.67;;;8.10;98.30;;;;;;6179627;23;20405;-83
2021/04/05 05:02:35;;;;;;;21.33;13.03;;;8.10;98.40;;;;;;6210059;23;20420;-82
2021/04/05 05:05:23;;;;;;;18.40;12.47;;;8.10;98.50;;;;;;6197992;23;20390;-83
2021/04/05 05:08:22;;;;;;;19.77;12.30;;;8.00;98.50;;;;;;6209967;23;20432;-82
2021/04/05 05:11:18;;;;;;;19.00;12.13;;;8.10;98.70;;;;;;6235299;23;20408;-81
2021/04/05 05:14:24;;;;;;;;;;;;;;;;;;;;;
2021/04/05 05:17:00;;;;;;;23.10;13.03;;;8.10;98.90;;;;;;6234845;23;20400;-81
2021/04/05 05:19:56;;;;;;;21.73;12.13;;;8.10;99.00;;;;;;6210992;23;20416;-81
2021/04/05 05:23:03;;;;;;;21.57;13.37;;;8.00;99.10;;;;;;6169788;23;20417;-84
2021/04/05 05:26:07;;;;;;;20.17;13.43;;;8.10;99.30;;;;;;6184511;23;20412;-84
2021/04/05 05:29:17;;;;;;;23.43;12.70;;;8.00;99.40;;;;;;6213532;23;21266;-84
2021/04/05 05:32:06;;;;;;;20.77;13.03;;;8.10;99.50;;;;;;6191728;23;20436;-85
2021/04/05 05:35:31;;;;;;;25.10;14.27;;;8.10;99.60;;;;;;6210934;23;20499;-83
2021/04/05 05:38:15;;;;;;;24.40;13.57;;;8.10;99.70;;;;;;6176270;23;20439;-85
2021/04/05 05:44:42;;;;;;;21.23;12.63;;;8.10;99.90;;;;;;6156724;23;20433;-83
2021/04/05 05:48:04;;;;;;;19.00;11.57;;;8.10;99.90;;;;;;6191526;23;20413;-84
2021/04/05 05:51:35;;;;;;;22.63;13.80;;;8.10;99.90;;;;;;6176395;23;20414;-85
2021/04/05 05:54:44;;;;;;;20.47;14.33;;;8.10;99.90;;;;;;6187732;23;20402;-83
2021/04/05 05:57:43;;;;;;;26.23;13.80;;;8.10;99.90;;;;;;6228861;23;20404;-83
2021/04/05 06:00:39;;;;;;;26.47;16.50;;;8.10;99.90;;;;;;6208504;23;20393;-83
2021/04/05 06:03:53;;;;;;;24.67;13.50;;;8.10;99.90;;;;;;6223740;23;20477;-81
2021/04/05 06:06:55;;;;;;;21.87;13.80;;;8.10;99.90;;;;;;6235018;23;20420;-84
2021/04/05 06:09:56;;;;;;;23.70;13.70;;;8.10;99.90;;;;;;6220652;23;20470;-82
2021/04/05 06:16:52;;;;;;;24.77;14.70;;;8.20;99.90;;;;;;6168628;23;20461;-83
2021/04/05 06:20:17;;;;;;;20.53;14.40;;;8.20;99.90;;;;;;6160493;23;20897;-82
2021/04/05 06:27:46;;;;;;;25.37;13.10;;;8.10;99.90;;;;;;6211767;23;20413;-83
2021/04/05 06:34:15;;;;;;;30.37;15.93;;;8.10;99.90;;;;;;6201639;23;21320;-82
2021/04/05 06:37:47;;;;;;;28.13;17.40;;;8.10;99.90;;;;;;6215024;23;20388;-84
2021/04/05 06:40:50;;;;;;;30.60;16.60;;;8.10;99.90;;;;;;6188794;23;20444;-83
2021/04/05 06:47:51;;;;;;;27.07;16.13;;;8.10;99.90;;;;;;6207838;23;20476;-81
2021/04/05 06:50:44;;;;;;;24.27;14.73;;;8.10;99.90;;;;;;6218044;23;20413;-82
2021/04/05 06:58:10;;;;;;;24.10;15.73;;;8.10;99.90;;;;;;6189848;23;21205;-83
2021/04/05 07:01:39;;;;;;;24.33;16.10;;;8.10;99.90;;;;;;6124510;23;20451;-83
2021/04/05 07:05:34;;;;;;;;;;;;;;;;;;;;;
2021/04/05 07:09:05;;;;;;;23.50;15.23;;;8.10;99.90;;;;;;6060654;23;20456;-83
2021/04/05 07:11:54;;;;;;;27.20;16.30;;;8.10;99.90;;;;;;6044589;23;20399;-83
2021/04/05 07:15:15;;;;;;;33.40;18.40;;;8.10;99.90;;;;;;6118023;23;20483;-84
2021/04/05 07:27:03;;;;;;;21.20;16.53;;;8.10;99.90;;;;;;6011039;23;20398;-82
2021/04/05 07:34:26;;;;;;;25.57;16.70;;;8.00;99.90;;;;;;6030942;23;20514;-83
2021/04/05 07:38:09;;;;;;;27.23;16.23;;;8.10;99.90;;;;;;6065920;23;20413;-83
2021/04/05 07:41:26;;;;;;;30.00;17.40;;;8.20;99.90;;;;;;6033507;23;20425;-86
2021/04/05 07:44:29;;;;;;;25.17;16.30;;;8.10;99.90;;;;;;6062149;23;20417;-84
2021/04/05 07:47:34;;;;;;;24.33;17.13;;;8.10;99.90;;;;;;6062112;23;20977;-85
2021/04/05 07:50:44;;;;;;;26.57;18.53;;;8.50;99.90;;;;;;6045827;23;20447;-85
2021/04/05 07:58:15;;;;;;;23.63;16.43;;;8.60;99.90;;;;;;5888488;23;20411;-84
2021/04/05 08:05:26;;;;;;;26.53;15.93;;;8.30;99.90;;;;;;5977768;24;20866;-83
2021/04/05 08:12:25;;;;;;;35.43;18.20;;;8.40;99.90;;;;;;5963793;24;20411;-83
2021/04/05 08:15:44;;;;;;;23.30;15.90;;;8.40;99.90;;;;;;5967467;24;20462;-86
2021/04/05 08:19:23;;;;;;;22.50;15.20;;;8.50;99.90;;;;;;5895185;24;20445;-84
2021/04/05 08:26:37;;;;;;;;;;;;;;;;;;;;;
2021/04/05 08:30:00;;;;;;;19.63;15.97;;;8.70;99.90;;;;;;5792494;24;20500;-85
2021/04/05 08:33:23;;;;;;;26.40;16.10;;;8.70;99.90;;;;;;5819156;24;20433;-81
2021/04/05 08:36:54;;;;;;;;;;;;;;;;;;;;;
2021/04/05 08:40:11;;;;;;;20.20;14.83;;;8.70;99.90;;;;;;5900575;24;20427;-86
2021/04/05 08:43:58;;;;;;;13.17;9.10;;;8.60;99.90;;;;;;5941588;24;20428;-85
2021/04/05 08:47:33;;;;;;;8.13;6.07;;;8.50;99.90;;;;;;5924688;24;20393;-83
2021/04/05 08:51:09;;;;;;;;;;;;;;;;;;;;;
2021/04/05 08:54:12;;;;;;;5.20;3.50;;;8.00;99.90;;;;;;5950776;24;21069;-85
2021/04/05 09:02:06;;;;;;;;;;;;;;;;;;;;;
2021/04/05 09:08:18;;;;;;;6.00;2.50;;;7.60;99.90;;;;;;6004004;23;20419;-83
2021/04/05 09:11:24;;;;;;;3.83;2.20;;;7.70;99.90;;;;;;6067659;23;20519;-82
2021/04/05 09:15:31;;;;;;;3.17;2.80;;;7.70;99.90;;;;;;6091218;23;20407;-81
2021/04/05 09:18:45;;;;;;;3.87;2.27;;;7.60;99.90;;;;;;6051186;23;20602;-83
2021/04/05 09:22:01;;;;;;;2.43;1.60;;;7.70;99.90;;;;;;6038764;23;20441;-85
2021/04/05 09:25:22;;;;;;;2.37;1.80;;;7.80;99.90;;;;;;5996774;23;20479;-85
2021/04/05 09:28:39;;;;;;;7.37;2.83;;;7.70;99.90;;;;;;5998506;23;20427;-85
2021/04/05 09:39:26;;;;;;;1.97;1.80;;;7.60;99.90;;;;;;5997212;23;20407;-83
2021/04/05 09:42:55;;;;;;;3.67;2.00;;;7.80;99.90;;;;;;5971105;24;20540;-83
2021/04/05 09:54:24;;;;;;;1.60;1.50;;;7.70;99.90;;;;;;5895854;24;20490;-85
2021/04/05 09:57:43;;;;;;;1.33;0.80;;;7.70;99.90;;;;;;5915016;24;20404;-85
2021/04/05 10:01:05;;;;;;;2.00;1.43;;;7.40;99.90;;;;;;5939848;24;20436;-85
2021/04/05 10:04:17;;;;;;;3.27;1.53;;;7.10;99.90;;;;;;5966776;23;20415;-85
2021/04/05 10:07:26;;;;;;;2.00;0.90;;;7.00;99.90;;;;;;6034616;23;20379;-82
2021/04/05 10:10:52;;;;;;;;;;;;;;;;;;;;;
2021/04/05 10:14:26;;;;;;;;;;;;;;;;;;;;;
2021/04/05 10:17:40;;;;;;;2.80;1.60;;;6.70;99.90;;;;;;5982207;23;20463;-81
2021/04/05 10:21:06;;;;;;;1.67;1.23;;;6.60;99.90;;;;;;5963589;23;20491;-83
2021/04/05 10:24:43;;;;;;;2.80;1.53;;;6.50;99.90;;;;;;6013879;23;20493;-83
2021/04/05 10:32:05;;;;;;;3.73;1.30;;;6.70;99.90;;;;;;5991714;23;20450;-86
2021/04/05 10:35:41;;;;;;;4.87;1.63;;;6.60;99.90;;;;;;6023054;23;20459;-82
2021/04/05 10:47:05;;;;;;;6.53;1.80;;;6.60;99.90;;;;;;6193222;23;20392;-83
2021/04/05 10:50:31;;;;;;;;;;;;;;;;;;;;;
2021/04/05 11:05:07;;;;;;;;;;;;;;;;;;;;;
2021/04/05 11:08:13;;;;;;;3.90;1.20;;;6.60;98.80;;;;;;6096364;23;20425;-81
2021/04/05 11:25:22;;;;;;;3.30;1.37;;;7.00;96.80;;;;;;6199501;23;20474;-82
2021/04/05 11:29:02;;;;;;;6.90;1.80;;;7.00;96.90;;;;;;6081990;23;20413;-84
2021/04/05 11:39:27;;;;;;;4.63;1.70;;;7.00;96.60;;;;;;6080076;23;20476;-84
2021/04/05 11:58:03;;;;;;;2.13;1.60;;;5.80;99.90;;;;;;5845468;24;20403;-83
2021/04/05 12:01:25;;;;;;;3.40;1.50;;;6.00;99.90;;;;;;5800051;24;20464;-81
2021/04/05 12:09:04;;;;;;;2.63;1.13;;;6.10;99.40;;;;;;5839013;24;20400;-84
2021/04/05 12:12:58;;;;;;;1.50;0.77;;;6.50;99.90;;;;;;5843780;24;20429;-82
2021/04/05 12:16:24;;;;;;;1.77;0.80;;;6.90;97.90;;;;;;5779450;24;20470;-85
2021/04/05 12:31:15;;;;;;;3.43;1.13;;;7.40;91.80;;;;;;6068370;23;20403;-81
2021/04/05 12:34:36;;;;;;;4.10;1.57;;;7.40;91.70;;;;;;6027128;23;20432;-84
2021/04/05 12:46:16;;;;;;;4.37;1.40;;;7.00;90.30;;;;;;5946256;23;20415;-82
2021/04/05 12:50:09;;;;;;;2.40;1.10;;;6.80;90.50;;;;;;6001400;23;20443;-84
2021/04/05 12:54:00;;;;;;;3.10;1.03;;;6.90;91.70;;;;;;6102298;23;20420;-83
2021/04/05 12:57:43;;;;;;;2.10;1.10;;;6.80;93.80;;;;;;6083152;23;20462;-83
2021/04/05 13:01:16;;;;;;;4.03;1.77;;;6.50;95.90;;;;;;6153310;23;20418;-83
2021/04/05 13:04:24;;;;;;;3.90;1.33;;;6.30;95.50;;;;;;6182998;23;20421;-84
2021/04/05 13:07:47;;;;;;;2.43;1.70;;;6.20;95.50;;;;;;6132855;23;20516;-84
2021/04/05 13:15:16;;;;;;;;;;;;;;;;;;;;;
2021/04/05 13:23:08;;;;;;;;;;;;;;;;;;;;;
2021/04/05 13:26:44;;;;;;;4.17;1.37;;;7.00;93.90;;;;;;5842269;24;20457;-83
2021/04/05 13:30:13;;;;;;;3.57;1.60;;;7.60;92.60;;;;;;5863105;24;20581;-83
2021/04/05 13:33:44;;;;;;;5.40;1.27;;;8.20;91.30;;;;;;5761093;24;20454;-83
2021/04/05 13:37:15;;;;;;;4.10;1.50;;;8.70;90.10;;;;;;5779812;24;20458;-85
2021/04/05 13:46:29;;;;;;;4.47;1.80;;;7.60;87.10;;;;;;6184290;23;20524;-85
2021/04/05 13:50:04;;;;;;;;;;;;;;;;;;;;;
2021/04/05 13:57:59;;;;;;;2.13;1.10;;;6.30;93.00;;;;;;6037658;23;21063;-84
2021/04/05 14:04:23;;;;;;;1.80;1.10;;;7.00;92.80;;;;;;5829317;24;20408;-81
2021/04/05 14:07:47;;;;;;;4.70;1.07;;;7.60;90.80;;;;;;5976901;24;21003;-86
2021/04/05 14:29:16;;;;;;;2.73;1.20;;;9.00;72.40;;;;;;6091604;23;20416;-84
2021/04/05 14:36:10;;;;;;;;;;;;;;;;;;;;;
2021/04/05 14:39:33;;;;;;;1.30;1.03;;;8.70;68.30;;;;;;6091315;23;20469;-82
2021/04/05 14:43:18;;;;;;;6.00;1.33;;;8.60;66.30;;;;;;6032874;23;20462;-82
2021/04/05 14:50:47;;;;;;;;;;;;;;;;;;;;;
2021/04/05 14:55:06;;;;;;;1.10;0.70;;;9.10;58.50;;;;;;5997154;23;20421;-83
2021/04/05 15:02:30;;;;;;;2.50;0.90;;;8.80;58.10;;;;;;5921929;24;20457;-83
2021/04/05 15:10:06;;;;;;;2.30;0.73;;;8.90;59.30;;;;;;5853137;24;20381;-83
2021/04/05 15:16:32;;;;;;;4.67;1.00;;;9.20;55.80;;;;;;5935945;24;20451;-83
2021/04/05 15:27:11;;;;;;;2.63;1.00;;;8.60;46.40;;;;;;5937768;24;20413;-81
2021/04/05 15:34:22;;;;;;;1.20;0.57;;;8.70;46.60;;;;;;5946623;24;20427;-83
2021/04/05 15:49:13;;;;;;;1.90;1.20;;;8.40;48.50;;;;;;5982509;24;20405;-84
2021/04/05 16:00:10;;;;;;;1.67;1.03;;;8.50;53.10;;;;;;6055107;23;20397;-82
2021/04/05 16:05:04;;;;;;;;;;;;;;;;;;;;;
2021/04/05 16:08:22;;;;;;;;;;;;;;;;;;;;;
2021/04/05 16:11:21;;;;;;;2.30;0.90;;;7.80;57.50;;;;;;5973257;24;20462;-85
2021/04/05 16:14:34;;;;;;;2.73;0.90;;;7.50;57.80;;;;;;6009200;23;20430;-84
2021/04/05 16:18:05;;;;;;;3.37;2.27;;;7.40;57.90;;;;;;5985805;23;20471;-84
2021/04/05 16:25:40;;;;;;;4.10;1.10;;;7.00;59.80;;;;;;6037094;23;20496;-85
2021/04/05 16:32:24;;;;;;;4.00;1.67;;;6.90;61.80;;;;;;6039843;23;20457;-86
2021/04/05 16:36:02;;;;;;;2.00;1.13;;;6.80;64.60;;;;;;6097558;23;20450;-83
2021/04/05 16:39:22;;;;;;;2.80;1.07;;;6.70;67.40;;;;;;6165340;23;20500;-84
2021/04/05 16:42:46;;;;;;;1.73;1.30;;;6.60;69.60;;;;;;6163467;23;20491;-85
2021/04/05 16:45:57;;;;;;;2.33;2.00;;;6.30;75.30;;;;;;6190572;23;20413;-83
2021/04/05 16:49:50;;;;;;;1.10;0.97;;;6.30;78.90;;;;;;6100707;23;20377;-85
2021/04/05 16:53:08;;;;;;;2.10;1.07;;;6.40;77.90;;;;;;6015822;23;20450;-85
2021/04/05 16:56:16;;;;;;;4.70;1.70;;;6.50;78.70;;;;;;6075200;23;20480;-85
2021/04/05 16:59:07;;;;;;;3.93;2.00;;;6.40;79.30;;;;;;6101535;23;20413;-82
2021/04/05 17:01:59;;;;;;;2.70;1.43;;;6.40;80.40;;;;;;6112444;23;20425;-82
2021/04/05 17:05:23;;;;;;;1.90;1.10;;;6.40;81.10;;;;;;6105327;23;20644;-83
2021/04/05 17:08:40;;;;;;;3.07;0.80;;;6.40;81.50;;;;;;6084439;23;20436;-83
2021/04/05 17:12:03;;;;;;;;;;;;;;;;;;;;;
2021/04/05 17:18:49;;;;;;;4.53;2.63;;;6.10;81.50;;;;;;6097711;23;20404;-82
2021/04/05 17:22:31;;;;;;;2.60;2.40;;;6.10;82.00;;;;;;6012753;23;20406;-84
2021/04/05 17:29:43;;;;;;;2.70;1.10;;;6.20;83.90;;;;;;5962777;24;20405;-82
2021/04/05 17:33:46;;;;;;;;;;;;;;;;;;;;;
2021/04/05 17:58:32;;;;;;;2.20;1.23;;;6.10;81.20;;;;;;6135004;23;21269;-83
2021/04/05 18:04:54;;;;;;;6.23;1.90;;;6.10;80.60;;;;;;6226921;23;20476;-81
2021/04/05 18:16:29;;;;;;;3.80;0.73;;;6.10;86.80;;;;;;6149269;23;20445;-82
2021/04/05 18:19:59;;;;;;;2.10;1.33;;;6.10;90.80;;;;;;5981886;23;20437;-84
2021/04/05 18:23:16;;;;;;;3.70;1.10;;;6.10;92.00;;;;;;5936788;24;20437;-81
2021/04/05 18:26:51;;;;;;;4.10;1.43;;;5.80;92.20;;;;;;5859375;24;20457;-81
2021/04/05 18:30:10;;;;;;;3.37;1.53;;;5.80;92.60;;;;;;5917479;24;20452;-81
2021/04/05 18:44:45;;;;;;;6.30;2.43;;;5.70;91.00;;;;;;5813362;24;20803;-84
2021/04/05 18:48:13;;;;;;;4.93;1.23;;;5.50;90.70;;;;;;5808874;24;20543;-83
2021/04/05 18:51:31;;;;;;;;;;;;;;;;;;;;;
2021/04/05 18:54:51;;;;;;;4.23;1.37;;;5.40;90.80;;;;;;5808008;24;20993;-80
2021/04/05 18:57:48;;;;;;;;;;;;;;;;;;;;;
2021/04/05 19:00:43;;;;;;;5.60;5.00;;;5.30;91.30;;;;;;6061108;23;20411;-82
2021/04/05 19:04:06;;;;;;;5.77;2.47;;;5.20;91.70;;;;;;6108214;23;20405;-83
2021/04/05 19:07:26;;;;;;;2.80;2.50;;;5.20;92.20;;;;;;6162561;23;20580;-82
2021/04/05 19:10:53;;;;;;;4.53;2.67;;;5.10;92.90;;;;;;6096438;23;20449;-82
2021/04/05 19:14:47;;;;;;;7.50;3.00;;;5.10;93.30;;;;;;6050498;23;20437;-82
2021/04/05 19:18:18;;;;;;;;;;;;;;;;;;;;;
2021/04/05 19:25:14;;;;;;;7.80;6.40;;;4.90;93.10;;;;;;5875472;24;20420;-84
2021/04/05 19:29:06;;;;;;;5.83;2.97;;;4.80;92.40;;;;;;5863750;24;20449;-82
2021/04/05 19:34:45;;;;;;;4.53;2.00;;;4.80;91.90;;;;;;6168806;23;20725;-82
2021/04/05 19:41:48;;;;;;;3.83;1.40;;;4.80;91.30;;;;;;6157540;23;20632;-82
2021/04/05 19:53:33;;;;;;;4.23;2.10;;;4.70;91.30;;;;;;6019249;23;20431;-83
2021/04/05 19:56:53;;;;;;;9.40;6.60;;;4.60;91.20;;;;;;5987609;23;20455;-83
2021/04/05 20:00:33;;;;;;;;;;;;;;;;;;;;;
2021/04/05 20:04:29;;;;;;;1.80;1.30;;;4.60;91.10;;;;;;5871436;24;20446;-85
2021/04/05 20:08:06;;;;;;;2.00;1.20;;;4.60;91.10;;;;;;5870418;24;20456;-83
2021/04/05 20:11:38;;;;;;;;;;;;;;;;;;;;;
2021/04/05 20:15:03;;;;;;;4.00;1.60;;;4.60;90.90;;;;;;5844590;24;20494;-82
2021/04/05 20:17:51;;;;;;;3.70;1.20;;;4.70;90.80;;;;;;5792370;24;21188;-81
2021/04/05 20:21:00;;;;;;;3.10;1.40;;;4.70;91.00;;;;;;5882700;23;20900;-85
2021/04/05 20:24:34;;;;;;;;;;;;;;;;;;;;;
2021/04/05 20:27:07;;;;;;;3.90;1.50;;;4.70;91.40;;;;;;6016303;23;20446;-81
2021/04/05 20:30:41;;;;;;;7.10;1.20;;;4.60;91.70;;;;;;5953604;24;20413;-82
2021/04/05 20:33:59;;;;;;;2.10;1.20;;;4.50;92.10;;;;;;6033055;23;20521;-85
2021/04/05 20:37:23;;;;;;;2.30;1.27;;;4.50;92.20;;;;;;6028137;23;20462;-84
2021/04/05 20:43:56;;;;;;;;;;;;;;;;;;;;;
2021/04/05 20:47:38;;;;;;;4.50;1.30;;;4.40;93.00;;;;;;6041564;23;20446;-82
2021/04/05 20:50:59;;;;;;;4.37;1.40;;;4.40;93.30;;;;;;6118953;23;20392;-82
2021/04/05 20:54:26;;;;;;;;;;;;;;;;;;;;;
2021/04/05 20:57:33;;;;;;;5.67;1.30;;;4.40;93.70;;;;;;6108246;23;20421;-81
2021/04/05 21:00:49;;;;;;;;;;;;;;;;;;;;;
2021/04/05 21:07:17;;;;;;;8.23;1.50;;;4.30;93.70;;;;;;6056582;23;20454;-80
2021/04/05 21:13:38;;;;;;;2.13;1.23;;;4.30;94.00;;;;;;6107352;23;20432;-80
2021/04/05 21:16:54;;;;;;;;;;;;;;;;;;;;;
2021/04/05 21:19:31;;;;;;;4.33;1.80;;;4.20;94.10;;;;;;6092097;23;20460;-81
2021/04/05 21:22:34;;;;;;;7.53;1.70;;;4.20;94.30;;;;;;6095652;23;20444;-84
2021/04/05 21:32:44;;;;;;;3.00;1.87;;;4.20;94.70;;;;;;6033145;23;20442;-84
2021/04/05 21:35:24;;;;;;;4.17;1.77;;;4.20;95.00;;;;;;6042014;23;20433;-82
2021/04/05 21:38:29;;;;;;;5.30;1.70;;;4.20;94.90;;;;;;6071180;23;20447;-82
2021/04/05 21:41:38;;;;;;;9.00;2.97;;;4.20;94.90;;;;;;6098822;23;20472;-81
2021/04/05 21:44:08;;;;;;;4.83;2.40;;;4.20;95.10;;;;;;6103883;23;20420;-81
2021/04/05 21:47:08;;;;;;;4.87;2.50;;;4.30;95.40;;;;;;6084682;23;20483;-81
2021/04/05 21:50:26;;;;;;;5.63;2.40;;;4.30;94.90;;;;;;6098854;23;20396;-79
2021/04/05 21:53:18;;;;;;;6.47;2.50;;;4.30;95.10;;;;;;6085395;23;20428;-81
2021/04/05 21:56:21;;;;;;;4.40;2.10;;;4.20;95.20;;;;;;6066897;23;20455;-82
2021/04/05 21:59:42;;;;;;;5.87;2.60;;;4.20;95.30;;;;;;6059153;23;20408;-81
2021/04/05 22:06:09;;;;;;;4.23;1.77;;;4.20;94.80;;;;;;6207600;23;20417;-83
2021/04/05 22:09:42;;;;;;;9.50;2.00;;;4.20;94.40;;;;;;6211613;23;20516;-82
2021/04/05 22:13:19;;;;;;;4.70;2.40;;;4.30;94.10;;;;;;6210370;23;20778;-80
2021/04/05 22:16:22;;;;;;;5.07;2.03;;;4.30;94.10;;;;;;6209060;23;20444;-82
2021/04/05 22:23:30;;;;;;;4.60;1.60;;;4.30;94.00;;;;;;6202356;23;20451;-83
2021/04/05 22:26:22;;;;;;;5.87;1.83;;;4.30;94.60;;;;;;6032331;23;20416;-79
2021/04/05 22:29:16;;;;;;;3.67;1.70;;;4.20;96.20;;;;;;6088108;23;20429;-83
2021/04/05 22:32:59;;;;;;;;;;;;;;;;;;;;;
2021/04/05 22:36:21;;;;;;;5.70;2.20;;;4.20;97.40;;;;;;6086246;23;20455;-81
2021/04/05 22:39:09;;;;;;;6.00;1.60;;;4.20;97.30;;;;;;6066602;23;20967;-83
2021/04/05 22:45:35;;;;;;;14.13;2.87;;;4.10;98.20;;;;;;5944927;24;20711;-83
2021/04/05 22:48:24;;;;;;;6.20;1.83;;;4.10;99.90;;;;;;5947346;24;20390;-82
2021/04/05 22:51:19;;;;;;;2.77;1.97;;;4.00;99.90;;;;;;6020217;23;20445;-82
2021/04/05 22:57:23;;;;;;;7.13;2.20;;;3.70;99.90;;;;;;6057204;23;21264;-82
2021/04/05 23:00:51;;;;;;;7.40;2.77;;;3.70;99.90;;;;;;6036788;23;20440;-81
2021/04/05 23:03:56;;;;;;;5.60;1.90;;;3.70;99.90;;;;;;5932877;24;20796;-81
2021/04/05 23:10:28;;;;;;;5.27;2.70;;;3.80;99.90;;;;;;5948830;24;20425;-82
2021/04/05 23:14:20;;;;;;;6.00;2.73;;;3.70;99.90;;;;;;5997188;23;20462;-82
2021/04/05 23:18:12;;;;;;;3.53;2.33;;;3.70;99.90;;;;;;6007256;23;20453;-83
2021/04/05 23:22:03;;;;;;;8.43;3.10;;;3.80;99.90;;;;;;6164643;23;20446;-83